createdAt,value
2018-05-10T00:01:04.982Z,2.13
2018-05-10T00:03:33.212Z,2.27
2018-05-10T00:06:01.443Z,1.80
2018-05-10T00:08:29.762Z,1.83
2018-05-10T00:10:58.771Z,1.60
2018-05-10T00:13:26.995Z,1.47
2018-05-10T00:15:55.248Z,1.60
2018-05-10T00:18:24.228Z,1.80
2018-05-10T00:20:52.452Z,1.83
2018-05-10T00:23:20.696Z,1.37
2018-05-10T00:25:48.908Z,1.60
2018-05-10T00:28:17.165Z,1.50
2018-05-10T00:30:45.400Z,1.50
2018-05-10T00:33:14.385Z,2.00
2018-05-10T00:35:42.621Z,1.47
2018-05-10T00:38:10.849Z,1.43
2018-05-10T00:40:39.075Z,1.70
2018-05-10T00:43:07.291Z,1.60
2018-05-10T00:45:35.519Z,1.60
2018-05-10T00:48:03.754Z,1.33
2018-05-10T00:50:31.964Z,1.97
2018-05-10T00:53:00.213Z,1.47
2018-05-10T00:55:28.439Z,1.80
2018-05-10T00:57:57.054Z,1.77
2018-05-10T01:00:25.526Z,2.20
2018-05-10T01:02:53.761Z,1.70
2018-05-10T01:05:21.973Z,1.60
2018-05-10T01:07:50.603Z,1.73
2018-05-10T01:10:18.816Z,1.57
2018-05-10T01:12:47.827Z,2.00
2018-05-10T01:15:16.042Z,1.90
2018-05-10T01:17:44.265Z,1.70
2018-05-10T01:20:12.486Z,1.40
2018-05-10T01:22:41.098Z,1.50
2018-05-10T01:25:09.722Z,1.87
2018-05-10T01:27:37.940Z,1.30
2018-05-10T01:30:06.164Z,1.80
2018-05-10T01:32:34.391Z,1.53
2018-05-10T01:35:14.701Z,1.40
2018-05-10T01:37:42.922Z,1.47
2018-05-10T01:40:11.152Z,1.53
2018-05-10T01:42:39.374Z,1.70
2018-05-10T01:45:07.600Z,1.17
2018-05-10T01:47:35.823Z,1.57
2018-05-10T01:50:04.066Z,1.63
2018-05-10T01:52:32.294Z,3.40
2018-05-10T01:55:00.515Z,1.50
2018-05-10T01:57:28.736Z,1.33
2018-05-10T01:59:57.736Z,1.67
2018-05-10T02:02:26.738Z,1.53
2018-05-10T02:04:54.973Z,1.60
2018-05-10T02:07:23.205Z,1.73
2018-05-10T02:09:52.201Z,1.43
2018-05-10T02:12:20.442Z,1.60
2018-05-10T02:14:49.480Z,1.27
2018-05-10T02:17:17.688Z,1.50
2018-05-10T02:19:45.939Z,1.30
2018-05-10T02:22:14.162Z,1.53
2018-05-10T02:24:42.401Z,1.43
2018-05-10T02:27:10.616Z,2.00
2018-05-10T02:29:38.931Z,1.47
2018-05-10T02:32:07.072Z,1.57
2018-05-10T02:34:35.302Z,1.77
2018-05-10T02:37:03.536Z,1.27
2018-05-10T02:39:31.777Z,1.73
2018-05-10T02:42:00.765Z,1.57
2018-05-10T02:44:28.994Z,1.30
2018-05-10T02:46:57.237Z,1.67
2018-05-10T02:49:25.470Z,1.50
2018-05-10T02:51:53.691Z,1.43
2018-05-10T02:54:21.931Z,1.70
2018-05-10T02:56:50.945Z,1.63
2018-05-10T02:59:19.177Z,1.40
2018-05-10T03:01:47.411Z,1.40
2018-05-10T03:04:15.652Z,1.33
2018-05-10T03:06:44.652Z,1.20
2018-05-10T03:09:12.894Z,1.23
2018-05-10T03:11:41.113Z,1.20
2018-05-10T03:14:09.472Z,1.40
2018-05-10T03:16:38.469Z,1.90
2018-05-10T03:19:06.709Z,1.30
2018-05-10T03:21:34.946Z,1.23
2018-05-10T03:24:03.179Z,1.20
2018-05-10T03:26:32.180Z,1.27
2018-05-10T03:29:00.400Z,1.40
2018-05-10T03:31:28.633Z,1.47
2018-05-10T03:33:56.865Z,1.10
2018-05-10T03:36:25.116Z,1.30
2018-05-10T03:38:53.349Z,1.90
2018-05-10T03:41:22.340Z,1.23
2018-05-10T03:43:51.351Z,1.20
2018-05-10T03:46:19.681Z,1.47
2018-05-10T03:48:47.975Z,1.10
2018-05-10T03:51:16.967Z,1.40
2018-05-10T03:53:45.196Z,1.23
2018-05-10T03:56:13.428Z,1.53
2018-05-10T03:58:42.065Z,1.10
2018-05-10T04:01:10.291Z,1.20
2018-05-10T04:06:57.028Z,1.63
2018-05-10T04:09:37.630Z,1.40
2018-05-10T04:12:06.186Z,1.17
2018-05-10T04:14:34.414Z,1.43
2018-05-10T04:17:02.648Z,1.13
2018-05-10T04:19:30.882Z,1.10
2018-05-10T04:21:59.111Z,1.37
2018-05-10T04:24:27.355Z,0.93
2018-05-10T04:26:55.833Z,1.10
2018-05-10T04:29:24.052Z,1.00
2018-05-10T04:31:53.060Z,1.30
2018-05-10T04:34:22.798Z,1.40
2018-05-10T04:36:51.803Z,1.10
2018-05-10T04:39:20.032Z,1.30
2018-05-10T04:41:48.267Z,1.63
2018-05-10T04:44:16.892Z,1.20
2018-05-10T04:46:45.112Z,1.10
2018-05-10T04:49:13.345Z,1.23
2018-05-10T04:51:41.983Z,1.20
2018-05-10T04:54:10.220Z,1.43
2018-05-10T04:56:38.503Z,1.20
2018-05-10T04:59:07.341Z,1.60
2018-05-10T05:01:35.590Z,1.40
2018-05-10T05:04:04.476Z,1.20
2018-05-10T05:06:32.746Z,1.00
2018-05-10T05:09:01.073Z,0.80
2018-05-10T05:11:29.208Z,0.90
2018-05-10T05:13:57.643Z,1.10
2018-05-10T05:16:25.893Z,1.17
2018-05-10T05:18:54.130Z,1.40
2018-05-10T05:21:22.390Z,1.47
2018-05-10T05:23:50.631Z,1.37
2018-05-10T05:26:18.867Z,1.07
2018-05-10T05:28:47.093Z,1.87
2018-05-10T05:31:15.337Z,1.07
2018-05-10T05:33:43.949Z,1.47
2018-05-10T05:36:12.957Z,1.23
2018-05-10T05:38:41.191Z,1.40
2018-05-10T05:41:09.526Z,1.20
2018-05-10T05:43:38.700Z,1.17
2018-05-10T05:46:06.873Z,1.13
2018-05-10T05:48:35.147Z,1.23
2018-05-10T05:51:03.381Z,1.13
2018-05-10T05:53:31.625Z,0.80
2018-05-10T05:55:59.862Z,1.00
2018-05-10T05:58:28.326Z,1.00
2018-05-10T06:00:56.594Z,1.33
2018-05-10T06:03:25.273Z,1.10
2018-05-10T06:05:53.503Z,1.17
2018-05-10T06:08:22.528Z,0.97
2018-05-10T06:10:51.512Z,1.17
2018-05-10T06:13:20.141Z,1.03
2018-05-10T06:15:48.408Z,1.50
2018-05-10T06:18:17.021Z,1.40
2018-05-10T06:20:45.250Z,1.13
2018-05-10T06:23:13.876Z,1.57
2018-05-10T06:25:42.718Z,1.10
2018-05-10T06:28:10.961Z,1.17
2018-05-10T06:30:39.195Z,1.53
2018-05-10T06:33:08.191Z,1.03
2018-05-10T06:35:36.433Z,1.70
2018-05-10T06:38:04.663Z,1.43
2018-05-10T06:40:32.895Z,1.20
2018-05-10T06:43:01.524Z,1.50
2018-05-10T06:45:29.753Z,1.37
2018-05-10T06:47:57.973Z,0.90
2018-05-10T06:50:26.217Z,1.60
2018-05-10T06:52:55.214Z,1.30
2018-05-10T06:55:23.447Z,1.20
2018-05-10T06:57:52.079Z,1.23
2018-05-10T07:00:20.311Z,1.57
2018-05-10T07:02:48.544Z,1.50
2018-05-10T07:05:16.779Z,1.57
2018-05-10T07:07:45.400Z,1.07
2018-05-10T07:10:13.753Z,1.37
2018-05-10T07:12:42.375Z,1.50
2018-05-10T07:15:10.604Z,1.90
2018-05-10T07:17:39.608Z,2.10
2018-05-10T07:20:07.864Z,6.27
2018-05-10T07:22:36.868Z,2.60
2018-05-10T07:25:05.897Z,5.37
2018-05-10T07:27:34.647Z,3.33
2018-05-10T07:30:03.634Z,2.43
2018-05-10T07:32:31.866Z,2.17
2018-05-10T07:35:00.100Z,5.80
2018-05-10T07:37:28.327Z,3.00
2018-05-10T07:39:56.943Z,8.20
2018-05-10T07:42:25.190Z,3.37
2018-05-10T07:44:53.410Z,4.33
2018-05-10T07:47:21.723Z,4.60
2018-05-10T07:49:49.872Z,3.67
2018-05-10T07:52:18.104Z,4.53
2018-05-10T07:54:47.112Z,7.70
2018-05-10T07:57:15.340Z,4.93
2018-05-10T07:59:43.577Z,7.73
2018-05-10T08:02:11.809Z,3.33
2018-05-10T08:04:40.808Z,6.33
2018-05-10T08:07:09.105Z,5.70
2018-05-10T08:09:37.328Z,6.60
2018-05-10T08:12:05.563Z,5.73
2018-05-10T08:14:34.195Z,5.33
2018-05-10T08:17:02.479Z,9.63
2018-05-10T08:19:30.660Z,3.93
2018-05-10T08:21:59.676Z,4.70
2018-05-10T08:24:28.246Z,4.47
2018-05-10T08:26:56.483Z,3.77
2018-05-10T08:29:30.300Z,4.10
2018-05-10T08:31:59.304Z,5.63
2018-05-10T08:34:27.536Z,2.83
2018-05-10T08:36:55.760Z,5.17
2018-05-10T08:39:24.000Z,7.50
2018-05-10T08:41:52.234Z,3.40
2018-05-10T08:44:20.470Z,4.40
2018-05-10T08:46:49.093Z,4.80
2018-05-10T08:49:17.506Z,4.20
2018-05-10T08:51:45.854Z,4.33
2018-05-10T08:54:13.972Z,3.30
2018-05-10T08:56:42.982Z,4.10
2018-05-10T08:59:11.967Z,5.37
2018-05-10T09:01:41.360Z,4.53
2018-05-10T09:04:09.599Z,6.20
2018-05-10T09:06:37.846Z,6.00
2018-05-10T09:09:06.077Z,7.00
2018-05-10T09:11:34.315Z,4.50
2018-05-10T09:14:02.555Z,15.10
2018-05-10T09:16:30.793Z,7.30
2018-05-10T09:18:59.018Z,8.57
2018-05-10T09:21:27.256Z,7.50
2018-05-10T09:23:56.248Z,20.27
2018-05-10T09:26:25.265Z,20.63
2018-05-10T09:28:53.532Z,13.60
2018-05-10T09:31:21.738Z,25.25
2018-05-10T09:33:49.988Z,19.37
2018-05-10T09:36:18.226Z,13.60
2018-05-10T09:38:46.778Z,23.70
2018-05-10T09:41:15.001Z,15.60
2018-05-10T09:43:43.256Z,20.77
2018-05-10T09:46:11.586Z,11.80
2018-05-10T09:48:40.040Z,16.93
2018-05-10T09:51:09.029Z,26.43
2018-05-10T09:53:37.652Z,13.77
2018-05-10T09:56:05.893Z,11.40
2018-05-10T09:58:34.139Z,21.13
2018-05-10T10:01:02.387Z,12.40
2018-05-10T10:03:30.615Z,16.27
2018-05-10T10:05:58.855Z,14.37
2018-05-10T10:08:27.106Z,12.37
2018-05-10T10:10:55.346Z,19.93
2018-05-10T10:13:23.573Z,10.40
2018-05-10T10:15:51.815Z,13.47
2018-05-10T10:18:20.057Z,16.90
2018-05-10T10:20:48.289Z,14.30
2018-05-10T10:23:16.532Z,12.00
2018-05-10T10:25:44.765Z,8.73
2018-05-10T10:28:13.774Z,11.50
2018-05-10T10:30:41.999Z,9.93
2018-05-10T10:33:10.238Z,8.43
2018-05-10T10:35:38.473Z,9.10
2018-05-10T10:38:07.542Z,7.53
2018-05-10T10:40:35.734Z,13.67
2018-05-10T10:43:04.360Z,11.10
2018-05-10T10:45:32.639Z,11.90
2018-05-10T10:48:01.625Z,15.50
2018-05-10T10:50:29.853Z,13.73
2018-05-10T10:52:58.911Z,19.27
2018-05-10T10:55:27.879Z,17.23
2018-05-10T10:57:56.117Z,18.90
2018-05-10T11:00:25.122Z,12.70
2018-05-10T11:02:53.492Z,15.53
2018-05-10T11:05:22.507Z,11.93
2018-05-10T11:07:50.742Z,10.43
2018-05-10T11:10:18.997Z,10.77
2018-05-10T11:12:47.408Z,21.27
2018-05-10T11:15:16.408Z,24.87
2018-05-10T11:17:44.640Z,14.00
2018-05-10T11:20:13.069Z,16.67
2018-05-10T11:22:41.344Z,21.70
2018-05-10T11:25:09.547Z,17.30
2018-05-10T11:27:37.796Z,20.27
2018-05-10T11:30:06.031Z,14.27
2018-05-10T11:32:34.290Z,20.50
2018-05-10T11:35:02.530Z,20.90
2018-05-10T11:37:30.776Z,20.83
2018-05-10T11:39:59.769Z,19.20
2018-05-10T11:42:28.784Z,13.23
2018-05-10T11:44:57.010Z,12.03
2018-05-10T11:47:25.255Z,14.90
2018-05-10T11:49:53.511Z,15.83
2018-05-10T11:52:22.505Z,19.57
2018-05-10T11:54:51.358Z,11.47
2018-05-10T11:57:20.451Z,13.80
2018-05-10T11:59:48.605Z,12.40
2018-05-10T12:02:16.941Z,12.60
2018-05-10T12:04:45.176Z,13.37
2018-05-10T12:07:14.185Z,12.13
2018-05-10T12:09:43.886Z,8.47
2018-05-10T12:12:12.891Z,9.30
2018-05-10T12:14:41.761Z,18.13
2018-05-10T12:17:10.776Z,12.47
2018-05-10T12:19:40.175Z,8.87
2018-05-10T12:22:08.813Z,9.03
2018-05-10T12:24:37.035Z,16.50
2018-05-10T12:27:05.291Z,12.27
2018-05-10T12:29:34.020Z,10.50
2018-05-10T12:32:02.817Z,12.83
2018-05-10T12:34:31.148Z,10.93
2018-05-10T12:37:01.334Z,8.67
2018-05-10T12:39:29.569Z,11.77
2018-05-10T12:41:58.191Z,8.60
2018-05-10T12:44:27.504Z,8.60
2018-05-10T12:46:56.508Z,15.17
2018-05-10T12:49:24.745Z,6.33
2018-05-10T12:51:53.376Z,7.47
2018-05-10T12:54:23.836Z,7.53
2018-05-10T12:56:54.550Z,8.70
2018-05-10T12:59:23.959Z,9.40
2018-05-10T13:01:52.876Z,17.30
2018-05-10T13:04:21.111Z,5.70
2018-05-10T13:06:50.159Z,9.03
2018-05-10T13:09:18.374Z,5.53
2018-05-10T13:11:46.598Z,8.40
2018-05-10T13:14:15.253Z,8.63
2018-05-10T13:16:43.506Z,8.87
2018-05-10T13:19:12.529Z,5.77
2018-05-10T13:21:41.173Z,8.30
2018-05-10T13:24:10.165Z,7.67
2018-05-10T13:26:38.392Z,7.07
2018-05-10T13:29:07.060Z,8.30
2018-05-10T13:31:35.331Z,7.37
2018-05-10T13:34:03.570Z,6.37
2018-05-10T13:36:32.596Z,5.97
2018-05-10T13:39:00.875Z,7.13
2018-05-10T13:41:29.098Z,6.47
2018-05-10T13:43:58.120Z,6.90
2018-05-10T13:46:26.429Z,7.57
2018-05-10T13:48:54.657Z,9.00
2018-05-10T13:51:23.292Z,4.63
2018-05-10T13:53:52.310Z,7.07
2018-05-10T13:56:20.957Z,6.70
2018-05-10T13:58:49.164Z,5.77
2018-05-10T14:01:18.225Z,5.23
2018-05-10T14:03:47.161Z,6.50
2018-05-10T14:06:16.168Z,7.87
2018-05-10T14:08:45.012Z,5.60
2018-05-10T14:11:14.757Z,4.83
2018-05-10T14:13:42.994Z,6.03
2018-05-10T14:16:11.312Z,4.90
2018-05-10T14:18:39.544Z,5.17
2018-05-10T14:21:07.785Z,4.37
2018-05-10T14:23:36.420Z,7.70
2018-05-10T14:26:05.443Z,4.50
2018-05-10T14:28:34.437Z,7.10
2018-05-10T14:31:03.077Z,5.30
2018-05-10T14:33:31.317Z,4.30
2018-05-10T14:35:59.572Z,5.10
2018-05-10T14:38:27.792Z,4.40
2018-05-10T14:40:56.078Z,5.27
2018-05-10T14:43:24.286Z,4.73
2018-05-10T14:45:52.519Z,5.10
2018-05-10T14:48:20.749Z,3.87
2018-05-10T14:50:48.998Z,4.77
2018-05-10T14:53:17.456Z,4.43
2018-05-10T14:55:46.075Z,4.63
2018-05-10T14:58:14.316Z,8.90
2018-05-10T15:00:42.550Z,4.50
2018-05-10T15:03:10.799Z,5.10
2018-05-10T15:05:39.049Z,4.80
2018-05-10T15:08:08.058Z,4.63
2018-05-10T15:10:36.301Z,4.50
2018-05-10T15:13:04.922Z,4.53
2018-05-10T15:15:33.201Z,4.30
2018-05-10T15:18:01.409Z,4.53
2018-05-10T15:20:29.628Z,5.03
2018-05-10T15:22:58.288Z,5.60
2018-05-10T15:25:26.608Z,6.00
2018-05-10T15:27:54.832Z,6.87
2018-05-10T15:30:23.062Z,6.63
2018-05-10T15:32:51.281Z,7.57
2018-05-10T15:35:19.917Z,6.57
2018-05-10T15:37:48.138Z,9.80
2018-05-10T15:40:17.160Z,8.93
2018-05-10T15:42:45.388Z,5.17
2018-05-10T15:45:14.398Z,5.57
2018-05-10T15:47:42.649Z,4.83
2018-05-10T15:50:10.893Z,4.60
2018-05-10T15:52:39.343Z,7.97
2018-05-10T15:55:07.971Z,6.37
2018-05-10T15:57:36.192Z,4.53
2018-05-10T16:00:04.959Z,6.87
2018-05-10T16:02:33.970Z,5.03
2018-05-10T16:05:02.630Z,4.00
2018-05-10T16:07:31.622Z,8.70
2018-05-10T16:09:59.852Z,4.87
2018-05-10T16:12:28.104Z,11.43
2018-05-10T16:14:57.093Z,6.53
2018-05-10T16:17:25.332Z,9.90
2018-05-10T16:19:53.558Z,4.40
2018-05-10T16:22:22.180Z,7.70
2018-05-10T16:24:51.240Z,4.87
2018-05-10T16:27:19.833Z,3.90
2018-05-10T16:29:48.379Z,4.40
2018-05-10T16:32:16.612Z,5.27
2018-05-10T16:34:44.849Z,5.30
2018-05-10T16:37:13.077Z,6.10
2018-05-10T16:39:41.724Z,7.53
2018-05-10T16:42:09.990Z,8.53
2018-05-10T16:44:38.202Z,10.33
2018-05-10T16:47:06.442Z,12.03
2018-05-10T16:49:34.677Z,7.53
2018-05-10T16:52:03.692Z,14.87
2018-05-10T16:54:31.909Z,9.30
2018-05-10T16:57:00.140Z,10.23
2018-05-10T16:59:28.375Z,23.33
2018-05-10T17:01:56.636Z,10.53
2018-05-10T17:04:24.860Z,14.77
2018-05-10T17:06:53.143Z,9.53
2018-05-10T17:09:21.353Z,6.83
2018-05-10T17:11:49.580Z,11.07
2018-05-10T17:14:18.223Z,20.23
2018-05-10T17:16:46.456Z,19.27
2018-05-10T17:19:14.693Z,8.47
2018-05-10T17:21:43.321Z,10.23
2018-05-10T17:24:11.572Z,9.60
2018-05-10T17:26:39.842Z,10.57
2018-05-10T17:29:08.104Z,10.80
2018-05-10T17:31:37.126Z,7.83
2018-05-10T17:34:05.566Z,11.97
2018-05-10T17:36:34.557Z,5.70
2018-05-10T17:39:03.195Z,5.97
2018-05-10T17:41:31.434Z,5.87
2018-05-10T17:44:00.057Z,7.10
2018-05-10T17:46:28.284Z,7.03
2018-05-10T17:48:56.524Z,5.80
2018-05-10T17:51:24.754Z,8.23
2018-05-10T17:53:53.029Z,6.93
2018-05-10T17:56:21.275Z,10.33
2018-05-10T17:58:50.293Z,8.50
2018-05-10T18:01:18.582Z,5.77
2018-05-10T18:03:46.924Z,4.87
2018-05-10T18:06:15.549Z,4.60
2018-05-10T18:08:44.573Z,8.10
2018-05-10T18:11:13.307Z,6.23
2018-05-10T18:13:42.032Z,5.37
2018-05-10T18:16:10.540Z,5.90
2018-05-10T18:18:39.349Z,5.23
2018-05-10T18:21:07.601Z,4.93
2018-05-10T18:23:35.863Z,5.17
2018-05-10T18:26:04.401Z,5.07
2018-05-10T18:28:32.676Z,6.03
2018-05-10T18:31:01.090Z,6.37
2018-05-10T18:33:29.325Z,5.70
2018-05-10T18:35:57.563Z,5.90
2018-05-10T18:38:26.575Z,5.00
2018-05-10T18:40:54.902Z,5.20
2018-05-10T18:43:23.040Z,5.03
2018-05-10T18:45:51.288Z,3.90
2018-05-10T18:48:19.530Z,4.60
2018-05-10T18:50:47.761Z,5.17
2018-05-10T18:53:16.398Z,7.33
2018-05-10T18:55:44.628Z,4.63
2018-05-10T18:58:12.876Z,8.53
2018-05-10T19:00:41.108Z,4.20
2018-05-10T19:03:09.388Z,4.60
2018-05-10T19:05:38.305Z,4.27
2018-05-10T19:08:06.534Z,3.60
2018-05-10T19:10:34.786Z,8.00
2018-05-10T19:13:03.042Z,5.37
2018-05-10T19:15:31.380Z,4.67
2018-05-10T19:17:59.773Z,4.10
2018-05-10T19:20:28.408Z,3.87
2018-05-10T19:22:56.638Z,4.27
2018-05-10T19:25:25.028Z,6.07
2018-05-10T19:27:53.279Z,3.20
2018-05-10T19:30:22.268Z,3.80
2018-05-10T19:32:50.536Z,3.90
2018-05-10T19:35:18.765Z,3.83
2018-05-10T19:37:47.111Z,5.50
2018-05-10T19:40:16.105Z,3.60
2018-05-10T19:42:44.498Z,6.00
2018-05-10T19:45:13.196Z,4.53
2018-05-10T19:47:41.398Z,3.03
2018-05-10T19:50:09.634Z,3.33
2018-05-10T19:52:37.876Z,3.97
2018-05-10T19:55:06.088Z,5.47
2018-05-10T19:57:34.329Z,3.63
2018-05-10T20:00:02.946Z,3.93
2018-05-10T20:02:31.944Z,3.17
2018-05-10T20:05:00.179Z,3.83
2018-05-10T20:07:28.445Z,3.03
2018-05-10T20:09:56.664Z,3.37
2018-05-10T20:12:25.293Z,4.30
2018-05-10T20:14:53.575Z,3.30
2018-05-10T20:17:21.765Z,3.47
2018-05-10T20:19:50.247Z,3.47
2018-05-10T20:22:18.448Z,3.07
2018-05-10T20:24:46.693Z,2.50
2018-05-10T20:27:14.925Z,3.63
2018-05-10T20:29:43.180Z,3.40
2018-05-10T20:32:11.860Z,3.17
2018-05-10T20:34:40.444Z,4.63
2018-05-10T20:37:08.683Z,3.33
2018-05-10T20:39:36.911Z,5.30
2018-05-10T20:42:05.553Z,3.23
2018-05-10T20:44:33.784Z,3.17
2018-05-10T20:47:02.039Z,3.30
2018-05-10T20:49:31.037Z,2.80
2018-05-10T20:51:59.275Z,3.63
2018-05-10T20:54:27.512Z,3.07
2018-05-10T20:56:56.619Z,2.70
2018-05-10T20:59:24.854Z,2.70
2018-05-10T21:01:53.946Z,4.17
2018-05-10T21:04:22.920Z,2.93
2018-05-10T21:06:51.227Z,3.20
2018-05-10T21:09:20.227Z,3.03
2018-05-10T21:11:48.851Z,3.03
2018-05-10T21:14:17.096Z,3.20
2018-05-10T21:16:46.090Z,2.70
2018-05-10T21:19:15.104Z,2.77
2018-05-10T21:21:43.333Z,3.20
2018-05-10T21:24:11.566Z,2.90
2018-05-10T21:26:39.802Z,3.23
2018-05-10T21:29:08.028Z,2.70
2018-05-10T21:31:37.034Z,2.90
2018-05-10T21:34:05.385Z,2.50
2018-05-10T21:36:33.621Z,3.30
2018-05-10T21:39:02.616Z,3.40
2018-05-10T21:41:30.841Z,2.90
2018-05-10T21:43:59.072Z,2.30
2018-05-10T21:46:27.297Z,2.30
2018-05-10T21:48:55.933Z,3.40
2018-05-10T21:51:25.135Z,2.70
2018-05-10T21:53:54.133Z,2.40
2018-05-10T21:56:22.422Z,2.67
2018-05-10T21:58:51.367Z,2.83
2018-05-10T22:01:20.388Z,2.43
2018-05-10T22:03:49.383Z,2.60
2018-05-10T22:06:18.387Z,2.43
2018-05-10T22:08:46.668Z,2.17
2018-05-10T22:11:14.865Z,2.47
2018-05-10T22:13:43.091Z,2.53
2018-05-10T22:16:11.321Z,2.27
2018-05-10T22:18:39.581Z,2.77
2018-05-10T22:21:07.768Z,2.70
2018-05-10T22:23:36.004Z,2.30
2018-05-10T22:26:04.531Z,2.40
2018-05-10T22:28:33.547Z,2.43
2018-05-10T22:31:01.785Z,2.30
2018-05-10T22:33:30.104Z,2.80
2018-05-10T22:35:58.736Z,2.10
2018-05-10T22:38:27.072Z,2.40
2018-05-10T22:40:55.302Z,2.30
2018-05-10T22:43:24.312Z,2.10
2018-05-10T22:45:52.538Z,2.30
2018-05-10T22:48:20.776Z,2.80
2018-05-10T22:50:49.020Z,2.50
2018-05-10T22:53:18.023Z,2.57
2018-05-10T22:55:47.013Z,2.43
2018-05-10T22:58:16.013Z,2.13
2018-05-10T23:00:44.244Z,1.87
2018-05-10T23:03:12.494Z,6.63
2018-05-10T23:05:40.720Z,2.30
2018-05-10T23:08:09.717Z,2.10
2018-05-10T23:10:38.718Z,2.50
2018-05-10T23:13:07.710Z,2.20
2018-05-10T23:15:36.341Z,2.40
2018-05-10T23:18:04.581Z,2.20
2018-05-10T23:20:33.207Z,2.20
2018-05-10T23:23:01.448Z,2.00
2018-05-10T23:25:29.673Z,2.20
2018-05-10T23:27:58.305Z,2.30
2018-05-10T23:30:26.543Z,1.67
2018-05-10T23:32:54.783Z,2.03
2018-05-10T23:35:23.013Z,3.30
2018-05-10T23:37:51.241Z,2.20
2018-05-10T23:40:19.488Z,2.07
2018-05-10T23:42:47.714Z,2.40
2018-05-10T23:45:16.717Z,2.20
2018-05-10T23:47:44.953Z,2.17
2018-05-10T23:50:13.193Z,1.40
2018-05-10T23:52:41.837Z,1.70
2018-05-10T23:55:10.073Z,1.97
2018-05-10T23:57:38.314Z,2.20
